Olar, South Carolina
Current Conditions -  °F | °C
As of 8:55 PM on Monday 24 Nov 2014 (Local Time) from KBNL Reporting Station
NA  
Wind Chill: 63°   Ceiling: NA
Heat Index: 63°   Visibility: NA
Dew Point: 63°   Wind: 5mph
Humidity: 100%   Direction: 240°WSW
Pressure: 29.94"   Gusts: NA
Location:  33.18°N, 81.19°W
Report Text: KBNL 250155Z AUTO 24004KT 17/17 A2994 RMK AO2 P0002
Loading
Personal Weather Stations






























Interactive Weather Map New forecast layout! Learn more

10-Day Weather Forecast

Advertisements
Track Severe Weather on mobile